Terminal Aerodrome Forecast
Issued by NWS Hastings, NE

Home | Current Version | Previous Version | Text Only | Print | Product List | Glossary On
Versions: 1 2 3 4 5 6 7 8 9 10 11 12 13 14 15 16 17 18 19 20 21 22 23 24 25 26 27 28 29
822
FTUS43 KGID 061120
TAFGRI
TAF
KGRI 061120Z 0612/0712 24005KT P6SM FEW200
     FM061700 23009KT P6SM SKC
     FM070300 27008KT P6SM SCT200
     FM070600 31009KT P6SM SCT250 WS020/34035KT=

USA.gov is the U.S. government's official web portal to all federal, state and local government web resources and services.